This is the latest recevied weather packets stored in our database for station/object KO6MEX-13. If no packets are shown the sender has not sent any weather packets the latest 10 day(s).
| Time | Temp. | Humidity | Pressure | Rain* | Wind** | Luminosity | Snow |
|---|---|---|---|---|---|---|---|
| 1777751590 | 16.11° C | 73% | 1018.2 hPa | 0 mm | - | 450 W/m² | - |
| 1777751287 | 16.67° C | 72% | 1018.5 hPa | 0 mm | - | 451 W/m² | - |
| 1777750984 | 17.22° C | 70% | 1018.5 hPa | 0 mm | - | 455 W/m² | - |
| 1777750680 | 16.67° C | 70% | 1018.4 hPa | 0 mm | - | 561 W/m² | - |
| 1777750377 | 16.67° C | 71% | 1018.6 hPa | 0 mm | - | 443 W/m² | - |
| 1777750078 | 16.11° C | 73% | 1018.6 hPa | 0 mm | - | 486 W/m² | - |
| 1777749775 | 16.11° C | 73% | 1018.4 hPa | 0 mm | - | 454 W/m² | - |
| 1777749472 | 16.11° C | 73% | 1018.3 hPa | 0 mm | - | 456 W/m² | - |
| 1777749170 | 16.11° C | 73% | 1018.7 hPa | 0 mm | - | 482 W/m² | - |
| 1777748867 | 15.56° C | 75% | 1018.6 hPa | 0 mm | - | 475 W/m² | - |
| 1777748565 | 16.11° C | 74% | 1018.7 hPa | 0 mm | - | 420 W/m² | - |
| 1777748264 | 15.56° C | 75% | 1018.9 hPa | 0 mm | - | 423 W/m² | - |
| 1777747961 | 15.56° C | 75% | 1018.9 hPa | 0 mm | - | 419 W/m² | - |
| 1777747658 | 15.56° C | 74% | 1019.1 hPa | 0 mm | - | 366 W/m² | - |
| 1777747353 | 15.56° C | 75% | 1019 hPa | 0 mm | - | 340 W/m² | - |
| 1777747051 | 15.56° C | 75% | 1018.7 hPa | 0 mm | - | 306 W/m² | - |
| 1777746746 | 15° C | 78% | 1019 hPa | 0 mm | - | 285 W/m² | - |
| 1777746442 | 15° C | 77% | 1019 hPa | 0 mm | - | 231 W/m² | - |
| 1777746137 | 14.44° C | 79% | 1018.9 hPa | 0 mm | - | 255 W/m² | - |
| 1777745835 | 14.44° C | 80% | 1019 hPa | 0 mm | - | 264 W/m² | - |
| 1777745534 | 14.44° C | 81% | 1019.1 hPa | 0 mm | - | 219 W/m² | - |
| 1777745230 | 14.44° C | 80% | 1019 hPa | 0 mm | - | 190 W/m² | - |
| 1777744928 | 14.44° C | 80% | 1018.8 hPa | 0 mm | - | 194 W/m² | - |
| 1777744627 | 13.89° C | 82% | 1018.9 hPa | 0 mm | - | 228 W/m² | - |
| 1777744323 | 13.89° C | 82% | 1019 hPa | 0 mm | - | 225 W/m² | - |
* Rain latest hour (hover to see other rain measurements)
** Current wind speed in m/s (hover to see current wind gust speed)